sensor_id;sensor_type;location;lat;lon;timestamp;P1;durP1;ratioP1;P2;durP2;ratioP2
54125;SDS011;40360;52.992;6.796;2022-12-18T00:00:46;103.65;;;38.35;;
54125;SDS011;40360;52.992;6.796;2022-12-18T00:03:12;122.22;;;39.47;;
54125;SDS011;40360;52.992;6.796;2022-12-18T00:05:50;118.07;;;40.67;;
54125;SDS011;40360;52.992;6.796;2022-12-18T00:08:17;119.65;;;38.92;;
54125;SDS011;40360;52.992;6.796;2022-12-18T00:10:44;112.10;;;39.95;;
54125;SDS011;40360;52.992;6.796;2022-12-18T00:13:10;106.82;;;40.05;;
54125;SDS011;40360;52.992;6.796;2022-12-18T00:15:37;115.00;;;41.92;;
54125;SDS011;40360;52.992;6.796;2022-12-18T00:18:03;104.95;;;38.65;;
54125;SDS011;40360;52.992;6.796;2022-12-18T00:20:29;113.97;;;40.75;;
54125;SDS011;40360;52.992;6.796;2022-12-18T00:22:55;110.50;;;39.63;;
54125;SDS011;40360;52.992;6.796;2022-12-18T00:25:20;116.30;;;38.47;;
54125;SDS011;40360;52.992;6.796;2022-12-18T00:27:46;118.78;;;38.17;;
54125;SDS011;40360;52.992;6.796;2022-12-18T00:30:12;123.03;;;39.05;;
54125;SDS011;40360;52.992;6.796;2022-12-18T00:32:38;110.10;;;38.95;;
54125;SDS011;40360;52.992;6.796;2022-12-18T00:35:04;115.78;;;43.72;;
54125;SDS011;40360;52.992;6.796;2022-12-18T00:37:31;120.65;;;41.05;;
54125;SDS011;40360;52.992;6.796;2022-12-18T00:39:58;122.03;;;40.92;;
54125;SDS011;40360;52.992;6.796;2022-12-18T00:42:23;123.28;;;42.95;;
54125;SDS011;40360;52.992;6.796;2022-12-18T00:45:08;131.55;;;42.50;;
54125;SDS011;40360;52.992;6.796;2022-12-18T00:47:33;124.18;;;39.15;;
54125;SDS011;40360;52.992;6.796;2022-12-18T00:49:59;131.00;;;42.10;;
54125;SDS011;40360;52.992;6.796;2022-12-18T00:52:24;132.00;;;44.28;;
54125;SDS011;40360;52.992;6.796;2022-12-18T00:54:50;123.40;;;43.20;;
54125;SDS011;40360;52.992;6.796;2022-12-18T00:57:16;126.90;;;41.08;;
54125;SDS011;40360;52.992;6.796;2022-12-18T00:59:41;127.20;;;43.35;;
54125;SDS011;40360;52.992;6.796;2022-12-18T01:02:07;135.48;;;46.20;;
54125;SDS011;40360;52.992;6.796;2022-12-18T01:04:32;128.93;;;45.33;;
54125;SDS011;40360;52.992;6.796;2022-12-18T01:06:58;142.30;;;46.95;;
54125;SDS011;40360;52.992;6.796;2022-12-18T01:09:24;135.55;;;45.45;;
54125;SDS011;40360;52.992;6.796;2022-12-18T01:11:49;122.28;;;43.83;;
54125;SDS011;40360;52.992;6.796;2022-12-18T01:14:15;139.73;;;45.10;;
54125;SDS011;40360;52.992;6.796;2022-12-18T01:16:44;121.28;;;43.80;;
54125;SDS011;40360;52.992;6.796;2022-12-18T01:19:09;117.40;;;44.05;;
54125;SDS011;40360;52.992;6.796;2022-12-18T01:21:35;122.80;;;42.30;;
54125;SDS011;40360;52.992;6.796;2022-12-18T01:24:01;118.60;;;43.40;;
54125;SDS011;40360;52.992;6.796;2022-12-18T01:26:26;122.30;;;42.85;;
54125;SDS011;40360;52.992;6.796;2022-12-18T01:28:55;133.57;;;46.63;;
54125;SDS011;40360;52.992;6.796;2022-12-18T01:31:26;125.55;;;46.40;;
54125;SDS011;40360;52.992;6.796;2022-12-18T01:33:53;120.45;;;45.30;;
54125;SDS011;40360;52.992;6.796;2022-12-18T01:38:49;110.25;;;41.58;;
54125;SDS011;40360;52.992;6.796;2022-12-18T01:41:16;112.55;;;44.13;;
54125;SDS011;40360;52.992;6.796;2022-12-18T01:46:12;124.40;;;47.08;;
54125;SDS011;40360;52.992;6.796;2022-12-18T01:48:38;121.40;;;43.75;;
54125;SDS011;40360;52.992;6.796;2022-12-18T01:51:06;101.22;;;41.38;;
54125;SDS011;40360;52.992;6.796;2022-12-18T01:53:34;110.32;;;42.65;;
54125;SDS011;40360;52.992;6.796;2022-12-18T01:56:02;111.70;;;45.38;;
54125;SDS011;40360;52.992;6.796;2022-12-18T01:58:40;117.85;;;45.35;;
54125;SDS011;40360;52.992;6.796;2022-12-18T02:01:11;122.22;;;45.25;;
54125;SDS011;40360;52.992;6.796;2022-12-18T02:03:36;120.50;;;45.38;;
54125;SDS011;40360;52.992;6.796;2022-12-18T02:06:07;120.10;;;46.70;;
54125;SDS011;40360;52.992;6.796;2022-12-18T02:11:29;120.55;;;46.85;;
54125;SDS011;40360;52.992;6.796;2022-12-18T02:16:59;108.63;;;42.75;;
54125;SDS011;40360;52.992;6.796;2022-12-18T02:19:44;114.72;;;44.08;;
54125;SDS011;40360;52.992;6.796;2022-12-18T02:27:36;108.60;;;43.38;;
54125;SDS011;40360;52.992;6.796;2022-12-18T02:30:03;113.07;;;43.90;;
54125;SDS011;40360;52.992;6.796;2022-12-18T02:32:39;105.88;;;39.35;;
54125;SDS011;40360;52.992;6.796;2022-12-18T02:35:11;107.32;;;43.83;;
54125;SDS011;40360;52.992;6.796;2022-12-18T02:37:39;112.35;;;41.50;;
54125;SDS011;40360;52.992;6.796;2022-12-18T02:40:08;98.68;;;40.75;;
54125;SDS011;40360;52.992;6.796;2022-12-18T02:42:35;109.45;;;44.08;;
54125;SDS011;40360;52.992;6.796;2022-12-18T02:45:01;102.68;;;41.15;;
54125;SDS011;40360;52.992;6.796;2022-12-18T02:47:31;102.03;;;39.53;;
54125;SDS011;40360;52.992;6.796;2022-12-18T02:53:17;103.40;;;40.22;;
54125;SDS011;40360;52.992;6.796;2022-12-18T02:58:47;104.15;;;41.40;;
54125;SDS011;40360;52.992;6.796;2022-12-18T03:03:56;103.20;;;40.53;;
54125;SDS011;40360;52.992;6.796;2022-12-18T03:06:33;107.55;;;40.03;;
54125;SDS011;40360;52.992;6.796;2022-12-18T03:09:09;102.00;;;38.93;;
54125;SDS011;40360;52.992;6.796;2022-12-18T03:11:39;101.70;;;42.33;;
54125;SDS011;40360;52.992;6.796;2022-12-18T03:14:28;103.80;;;41.05;;
54125;SDS011;40360;52.992;6.796;2022-12-18T03:16:57;98.07;;;39.17;;
54125;SDS011;40360;52.992;6.796;2022-12-18T03:19:26;90.43;;;36.55;;
54125;SDS011;40360;52.992;6.796;2022-12-18T03:21:56;89.70;;;39.35;;
54125;SDS011;40360;52.992;6.796;2022-12-18T03:24:24;87.55;;;33.90;;
54125;SDS011;40360;52.992;6.796;2022-12-18T03:26:54;86.57;;;35.67;;
54125;SDS011;40360;52.992;6.796;2022-12-18T03:29:27;96.85;;;37.55;;
54125;SDS011;40360;52.992;6.796;2022-12-18T03:32:01;86.32;;;35.08;;
54125;SDS011;40360;52.992;6.796;2022-12-18T03:34:32;87.22;;;37.53;;
54125;SDS011;40360;52.992;6.796;2022-12-18T03:37:00;84.43;;;36.38;;
54125;SDS011;40360;52.992;6.796;2022-12-18T03:39:26;86.93;;;35.08;;
54125;SDS011;40360;52.992;6.796;2022-12-18T03:44:40;75.00;;;33.30;;
54125;SDS011;40360;52.992;6.796;2022-12-18T03:47:17;75.40;;;30.70;;
54125;SDS011;40360;52.992;6.796;2022-12-18T03:52:23;80.20;;;34.60;;
54125;SDS011;40360;52.992;6.796;2022-12-18T03:55:01;77.93;;;32.97;;
54125;SDS011;40360;52.992;6.796;2022-12-18T03:57:28;71.35;;;29.65;;
54125;SDS011;40360;52.992;6.796;2022-12-18T03:59:57;74.78;;;33.85;;
54125;SDS011;40360;52.992;6.796;2022-12-18T04:02:27;71.10;;;30.63;;
54125;SDS011;40360;52.992;6.796;2022-12-18T04:04:55;67.03;;;30.60;;
54125;SDS011;40360;52.992;6.796;2022-12-18T04:07:24;67.45;;;30.50;;
54125;SDS011;40360;52.992;6.796;2022-12-18T04:09:50;57.72;;;27.08;;
54125;SDS011;40360;52.992;6.796;2022-12-18T04:12:19;60.08;;;28.08;;
54125;SDS011;40360;52.992;6.796;2022-12-18T04:14:45;61.95;;;27.25;;
54125;SDS011;40360;52.992;6.796;2022-12-18T04:17:10;61.15;;;27.77;;
54125;SDS011;40360;52.992;6.796;2022-12-18T04:19:36;62.08;;;27.58;;
54125;SDS011;40360;52.992;6.796;2022-12-18T04:22:01;55.40;;;26.63;;
54125;SDS011;40360;52.992;6.796;2022-12-18T04:24:27;61.20;;;27.85;;
54125;SDS011;40360;52.992;6.796;2022-12-18T04:26:54;56.63;;;25.45;;
54125;SDS011;40360;52.992;6.796;2022-12-18T04:29:19;57.72;;;25.58;;
54125;SDS011;40360;52.992;6.796;2022-12-18T04:31:45;54.35;;;24.73;;
54125;SDS011;40360;52.992;6.796;2022-12-18T04:34:10;59.65;;;25.92;;
54125;SDS011;40360;52.992;6.796;2022-12-18T04:36:36;56.17;;;26.00;;
54125;SDS011;40360;52.992;6.796;2022-12-18T04:39:02;56.65;;;26.88;;
54125;SDS011;40360;52.992;6.796;2022-12-18T04:41:27;55.60;;;26.02;;
54125;SDS011;40360;52.992;6.796;2022-12-18T04:43:53;57.30;;;26.45;;
54125;SDS011;40360;52.992;6.796;2022-12-18T04:46:18;56.55;;;24.50;;
54125;SDS011;40360;52.992;6.796;2022-12-18T04:48:45;51.90;;;26.63;;
54125;SDS011;40360;52.992;6.796;2022-12-18T04:51:11;52.35;;;24.67;;
54125;SDS011;40360;52.992;6.796;2022-12-18T04:53:37;58.50;;;26.48;;
54125;SDS011;40360;52.992;6.796;2022-12-18T04:56:07;51.03;;;25.10;;
54125;SDS011;40360;52.992;6.796;2022-12-18T04:58:37;47.35;;;24.13;;
54125;SDS011;40360;52.992;6.796;2022-12-18T05:01:05;57.03;;;25.67;;
54125;SDS011;40360;52.992;6.796;2022-12-18T05:20:38;48.40;;;23.35;;
54125;SDS011;40360;52.992;6.796;2022-12-18T05:23:03;50.03;;;23.25;;
54125;SDS011;40360;52.992;6.796;2022-12-18T05:25:29;50.20;;;23.38;;
54125;SDS011;40360;52.992;6.796;2022-12-18T05:27:54;48.25;;;24.02;;
54125;SDS011;40360;52.992;6.796;2022-12-18T05:30:20;54.10;;;24.17;;
54125;SDS011;40360;52.992;6.796;2022-12-18T05:32:46;45.13;;;21.00;;
54125;SDS011;40360;52.992;6.796;2022-12-18T05:35:11;49.15;;;23.25;;
54125;SDS011;40360;52.992;6.796;2022-12-18T05:37:37;48.28;;;23.35;;
54125;SDS011;40360;52.992;6.796;2022-12-18T05:40:04;47.97;;;22.65;;
54125;SDS011;40360;52.992;6.796;2022-12-18T05:42:30;46.67;;;22.00;;
54125;SDS011;40360;52.992;6.796;2022-12-18T05:44:56;47.22;;;21.95;;
54125;SDS011;40360;52.992;6.796;2022-12-18T05:47:21;48.03;;;21.85;;
54125;SDS011;40360;52.992;6.796;2022-12-18T05:49:47;49.30;;;23.65;;
54125;SDS011;40360;52.992;6.796;2022-12-18T05:52:12;47.00;;;22.88;;
54125;SDS011;40360;52.992;6.796;2022-12-18T05:54:38;49.33;;;23.90;;
54125;SDS011;40360;52.992;6.796;2022-12-18T05:57:04;49.17;;;24.55;;
54125;SDS011;40360;52.992;6.796;2022-12-18T05:59:30;47.72;;;22.30;;
54125;SDS011;40360;52.992;6.796;2022-12-18T06:01:55;49.08;;;22.05;;
54125;SDS011;40360;52.992;6.796;2022-12-18T06:04:21;46.03;;;23.23;;
54125;SDS011;40360;52.992;6.796;2022-12-18T06:06:47;48.30;;;23.67;;
54125;SDS011;40360;52.992;6.796;2022-12-18T06:09:12;46.30;;;22.45;;
54125;SDS011;40360;52.992;6.796;2022-12-18T06:11:38;47.25;;;23.70;;
54125;SDS011;40360;52.992;6.796;2022-12-18T06:14:04;46.75;;;22.10;;
54125;SDS011;40360;52.992;6.796;2022-12-18T06:16:31;47.03;;;23.63;;
54125;SDS011;40360;52.992;6.796;2022-12-18T06:18:58;48.38;;;21.40;;
54125;SDS011;40360;52.992;6.796;2022-12-18T06:21:25;45.38;;;22.48;;
54125;SDS011;40360;52.992;6.796;2022-12-18T06:23:51;44.10;;;22.27;;
54125;SDS011;40360;52.992;6.796;2022-12-18T06:26:17;42.25;;;21.77;;
54125;SDS011;40360;52.992;6.796;2022-12-18T06:28:43;47.28;;;22.45;;
54125;SDS011;40360;52.992;6.796;2022-12-18T06:31:09;46.10;;;21.98;;
54125;SDS011;40360;52.992;6.796;2022-12-18T06:33:34;44.67;;;21.40;;
54125;SDS011;40360;52.992;6.796;2022-12-18T06:36:01;42.55;;;20.52;;
54125;SDS011;40360;52.992;6.796;2022-12-18T06:38:38;39.72;;;20.23;;
54125;SDS011;40360;52.992;6.796;2022-12-18T06:41:06;50.60;;;22.90;;
54125;SDS011;40360;52.992;6.796;2022-12-18T06:43:35;39.65;;;19.75;;
54125;SDS011;40360;52.992;6.796;2022-12-18T06:46:01;40.97;;;20.42;;
54125;SDS011;40360;52.992;6.796;2022-12-18T06:48:28;41.20;;;20.65;;
54125;SDS011;40360;52.992;6.796;2022-12-18T06:50:54;47.90;;;23.52;;
54125;SDS011;40360;52.992;6.796;2022-12-18T06:53:20;47.47;;;21.42;;
54125;SDS011;40360;52.992;6.796;2022-12-18T06:55:45;43.63;;;20.65;;
54125;SDS011;40360;52.992;6.796;2022-12-18T06:58:11;42.90;;;22.10;;
54125;SDS011;40360;52.992;6.796;2022-12-18T07:00:37;36.95;;;21.00;;
54125;SDS011;40360;52.992;6.796;2022-12-18T07:03:02;40.22;;;21.10;;
54125;SDS011;40360;52.992;6.796;2022-12-18T07:05:28;41.72;;;22.58;;
54125;SDS011;40360;52.992;6.796;2022-12-18T07:07:54;41.95;;;19.63;;
54125;SDS011;40360;52.992;6.796;2022-12-18T07:10:19;43.65;;;20.80;;
54125;SDS011;40360;52.992;6.796;2022-12-18T07:12:45;44.08;;;20.77;;
54125;SDS011;40360;52.992;6.796;2022-12-18T07:15:11;41.08;;;20.98;;
54125;SDS011;40360;52.992;6.796;2022-12-18T07:17:37;43.85;;;20.02;;
54125;SDS011;40360;52.992;6.796;2022-12-18T07:20:02;40.90;;;21.20;;
54125;SDS011;40360;52.992;6.796;2022-12-18T07:22:28;39.80;;;22.02;;
54125;SDS011;40360;52.992;6.796;2022-12-18T07:24:54;36.67;;;20.92;;
54125;SDS011;40360;52.992;6.796;2022-12-18T07:27:20;40.13;;;19.80;;
54125;SDS011;40360;52.992;6.796;2022-12-18T07:29:46;43.20;;;20.45;;
54125;SDS011;40360;52.992;6.796;2022-12-18T07:32:12;41.55;;;19.20;;
54125;SDS011;40360;52.992;6.796;2022-12-18T07:34:38;40.25;;;20.17;;
54125;SDS011;40360;52.992;6.796;2022-12-18T07:37:03;40.05;;;20.10;;
54125;SDS011;40360;52.992;6.796;2022-12-18T07:39:29;40.88;;;19.38;;
54125;SDS011;40360;52.992;6.796;2022-12-18T07:41:55;34.70;;;18.58;;
54125;SDS011;40360;52.992;6.796;2022-12-18T07:44:39;36.33;;;19.98;;
54125;SDS011;40360;52.992;6.796;2022-12-18T07:47:05;36.17;;;19.45;;
54125;SDS011;40360;52.992;6.796;2022-12-18T07:49:31;39.53;;;20.05;;
54125;SDS011;40360;52.992;6.796;2022-12-18T07:51:57;42.83;;;21.33;;
54125;SDS011;40360;52.992;6.796;2022-12-18T07:54:23;37.25;;;19.00;;
54125;SDS011;40360;52.992;6.796;2022-12-18T07:56:49;38.33;;;20.35;;
54125;SDS011;40360;52.992;6.796;2022-12-18T07:59:16;35.45;;;20.40;;
54125;SDS011;40360;52.992;6.796;2022-12-18T08:01:41;37.30;;;19.63;;
54125;SDS011;40360;52.992;6.796;2022-12-18T08:04:07;35.38;;;19.90;;
54125;SDS011;40360;52.992;6.796;2022-12-18T08:06:32;37.08;;;19.52;;
54125;SDS011;40360;52.992;6.796;2022-12-18T08:08:58;40.72;;;19.90;;
54125;SDS011;40360;52.992;6.796;2022-12-18T08:11:24;33.70;;;18.83;;
54125;SDS011;40360;52.992;6.796;2022-12-18T08:13:51;35.65;;;20.70;;
54125;SDS011;40360;52.992;6.796;2022-12-18T08:16:17;34.08;;;18.40;;
54125;SDS011;40360;52.992;6.796;2022-12-18T08:18:44;37.33;;;18.73;;
54125;SDS011;40360;52.992;6.796;2022-12-18T08:21:10;35.50;;;18.48;;
54125;SDS011;40360;52.992;6.796;2022-12-18T08:23:40;36.42;;;19.52;;
54125;SDS011;40360;52.992;6.796;2022-12-18T08:26:06;34.92;;;18.95;;
54125;SDS011;40360;52.992;6.796;2022-12-18T08:28:33;33.65;;;18.65;;
54125;SDS011;40360;52.992;6.796;2022-12-18T08:30:59;29.98;;;17.33;;
54125;SDS011;40360;52.992;6.796;2022-12-18T08:33:24;33.40;;;17.50;;
54125;SDS011;40360;52.992;6.796;2022-12-18T08:35:51;28.88;;;16.25;;
54125;SDS011;40360;52.992;6.796;2022-12-18T08:38:17;34.70;;;18.90;;
54125;SDS011;40360;52.992;6.796;2022-12-18T08:40:42;30.67;;;17.08;;
54125;SDS011;40360;52.992;6.796;2022-12-18T08:43:09;32.88;;;17.55;;
54125;SDS011;40360;52.992;6.796;2022-12-18T08:45:54;31.73;;;17.63;;
54125;SDS011;40360;52.992;6.796;2022-12-18T08:48:20;29.23;;;16.13;;
54125;SDS011;40360;52.992;6.796;2022-12-18T08:50:58;29.63;;;15.68;;
54125;SDS011;40360;52.992;6.796;2022-12-18T08:53:24;31.10;;;17.58;;
54125;SDS011;40360;52.992;6.796;2022-12-18T08:55:51;29.48;;;17.20;;
54125;SDS011;40360;52.992;6.796;2022-12-18T08:58:17;28.55;;;17.20;;
54125;SDS011;40360;52.992;6.796;2022-12-18T09:00:42;27.45;;;15.85;;
54125;SDS011;40360;52.992;6.796;2022-12-18T09:03:12;28.92;;;16.17;;
54125;SDS011;40360;52.992;6.796;2022-12-18T09:05:40;28.33;;;14.38;;
54125;SDS011;40360;52.992;6.796;2022-12-18T09:08:05;28.65;;;14.48;;
54125;SDS011;40360;52.992;6.796;2022-12-18T09:10:31;27.05;;;16.15;;
54125;SDS011;40360;52.992;6.796;2022-12-18T09:12:57;26.48;;;15.57;;
54125;SDS011;40360;52.992;6.796;2022-12-18T09:15:23;28.95;;;16.23;;
54125;SDS011;40360;52.992;6.796;2022-12-18T09:17:48;26.80;;;16.00;;
54125;SDS011;40360;52.992;6.796;2022-12-18T09:20:15;26.90;;;14.07;;
54125;SDS011;40360;52.992;6.796;2022-12-18T09:22:41;24.75;;;13.63;;
54125;SDS011;40360;52.992;6.796;2022-12-18T09:25:07;23.23;;;14.25;;
54125;SDS011;40360;52.992;6.796;2022-12-18T09:27:33;24.60;;;14.80;;
54125;SDS011;40360;52.992;6.796;2022-12-18T09:29:59;25.17;;;14.13;;
54125;SDS011;40360;52.992;6.796;2022-12-18T09:32:25;25.85;;;13.88;;
54125;SDS011;40360;52.992;6.796;2022-12-18T09:34:51;31.77;;;14.15;;
54125;SDS011;40360;52.992;6.796;2022-12-18T09:37:16;22.17;;;12.93;;
54125;SDS011;40360;52.992;6.796;2022-12-18T09:39:42;22.98;;;13.13;;
54125;SDS011;40360;52.992;6.796;2022-12-18T09:42:14;21.77;;;12.25;;
54125;SDS011;40360;52.992;6.796;2022-12-18T09:44:48;19.92;;;12.30;;
54125;SDS011;40360;52.992;6.796;2022-12-18T09:47:28;24.27;;;12.27;;
54125;SDS011;40360;52.992;6.796;2022-12-18T09:50:01;25.40;;;14.05;;
54125;SDS011;40360;52.992;6.796;2022-12-18T09:52:32;20.52;;;11.52;;
54125;SDS011;40360;52.992;6.796;2022-12-18T09:55:09;25.17;;;12.95;;
54125;SDS011;40360;52.992;6.796;2022-12-18T09:57:45;25.23;;;12.27;;
54125;SDS011;40360;52.992;6.796;2022-12-18T10:00:20;31.33;;;12.52;;
54125;SDS011;40360;52.992;6.796;2022-12-18T10:02:48;28.17;;;11.38;;
54125;SDS011;40360;52.992;6.796;2022-12-18T10:05:17;30.63;;;10.88;;
54125;SDS011;40360;52.992;6.796;2022-12-18T10:07:55;18.92;;;11.15;;
54125;SDS011;40360;52.992;6.796;2022-12-18T10:21:51;15.63;;;9.88;;
54125;SDS011;40360;52.992;6.796;2022-12-18T10:27:39;17.27;;;10.40;;
54125;SDS011;40360;52.992;6.796;2022-12-18T10:30:12;16.45;;;9.65;;
54125;SDS011;40360;52.992;6.796;2022-12-18T10:32:46;15.13;;;10.18;;
54125;SDS011;40360;52.992;6.796;2022-12-18T10:35:15;14.95;;;9.25;;
54125;SDS011;40360;52.992;6.796;2022-12-18T10:37:59;18.40;;;10.55;;
54125;SDS011;40360;52.992;6.796;2022-12-18T10:40:28;16.35;;;9.40;;
54125;SDS011;40360;52.992;6.796;2022-12-18T10:43:13;25.05;;;12.18;;
54125;SDS011;40360;52.992;6.796;2022-12-18T10:45:40;16.53;;;9.03;;
54125;SDS011;40360;52.992;6.796;2022-12-18T10:48:19;12.43;;;8.32;;
54125;SDS011;40360;52.992;6.796;2022-12-18T10:50:47;15.70;;;9.52;;
54125;SDS011;40360;52.992;6.796;2022-12-18T10:53:22;15.40;;;9.07;;
54125;SDS011;40360;52.992;6.796;2022-12-18T10:55:49;13.57;;;8.98;;
54125;SDS011;40360;52.992;6.796;2022-12-18T11:03:39;16.10;;;8.60;;
54125;SDS011;40360;52.992;6.796;2022-12-18T11:08:37;13.50;;;8.25;;
54125;SDS011;40360;52.992;6.796;2022-12-18T11:11:06;13.68;;;7.88;;
54125;SDS011;40360;52.992;6.796;2022-12-18T11:13:50;14.55;;;8.63;;
54125;SDS011;40360;52.992;6.796;2022-12-18T11:16:23;13.48;;;8.00;;
54125;SDS011;40360;52.992;6.796;2022-12-18T11:18:49;10.85;;;6.88;;
54125;SDS011;40360;52.992;6.796;2022-12-18T11:21:15;11.48;;;7.47;;
54125;SDS011;40360;52.992;6.796;2022-12-18T11:23:51;12.30;;;6.95;;
54125;SDS011;40360;52.992;6.796;2022-12-18T11:26:18;12.55;;;7.07;;
54125;SDS011;40360;52.992;6.796;2022-12-18T11:28:46;14.68;;;7.32;;
54125;SDS011;40360;52.992;6.796;2022-12-18T11:31:18;12.85;;;7.68;;
54125;SDS011;40360;52.992;6.796;2022-12-18T11:33:49;11.25;;;7.25;;
54125;SDS011;40360;52.992;6.796;2022-12-18T11:36:23;13.43;;;7.65;;
54125;SDS011;40360;52.992;6.796;2022-12-18T11:38:51;12.07;;;7.13;;
54125;SDS011;40360;52.992;6.796;2022-12-18T11:41:27;11.38;;;6.53;;
54125;SDS011;40360;52.992;6.796;2022-12-18T11:44:14;14.80;;;7.22;;
54125;SDS011;40360;52.992;6.796;2022-12-18T11:46:51;10.70;;;7.13;;
54125;SDS011;40360;52.992;6.796;2022-12-18T11:49:27;11.23;;;6.95;;
54125;SDS011;40360;52.992;6.796;2022-12-18T11:52:01;10.90;;;6.63;;
54125;SDS011;40360;52.992;6.796;2022-12-18T11:54:34;12.60;;;6.43;;
54125;SDS011;40360;52.992;6.796;2022-12-18T11:57:06;9.57;;;6.30;;
54125;SDS011;40360;52.992;6.796;2022-12-18T12:02:28;11.63;;;6.55;;
54125;SDS011;40360;52.992;6.796;2022-12-18T12:11:07;12.13;;;6.82;;
54125;SDS011;40360;52.992;6.796;2022-12-18T12:17:13;10.88;;;5.97;;
54125;SDS011;40360;52.992;6.796;2022-12-18T12:30:30;11.48;;;7.15;;
54125;SDS011;40360;52.992;6.796;2022-12-18T12:36:18;10.15;;;7.05;;
54125;SDS011;40360;52.992;6.796;2022-12-18T12:38:57;10.00;;;6.63;;
54125;SDS011;40360;52.992;6.796;2022-12-18T12:41:27;12.25;;;6.38;;
54125;SDS011;40360;52.992;6.796;2022-12-18T12:44:26;9.05;;;6.65;;
54125;SDS011;40360;52.992;6.796;2022-12-18T12:46:56;9.88;;;6.35;;
54125;SDS011;40360;52.992;6.796;2022-12-18T12:49:26;10.02;;;6.47;;
54125;SDS011;40360;52.992;6.796;2022-12-18T12:51:58;8.82;;;5.70;;
54125;SDS011;40360;52.992;6.796;2022-12-18T12:54:31;9.43;;;6.57;;
54125;SDS011;40360;52.992;6.796;2022-12-18T12:57:03;11.18;;;6.38;;
54125;SDS011;40360;52.992;6.796;2022-12-18T13:02:24;12.63;;;6.50;;
54125;SDS011;40360;52.992;6.796;2022-12-18T13:05:16;11.48;;;6.75;;
54125;SDS011;40360;52.992;6.796;2022-12-18T13:08:06;10.43;;;6.82;;
54125;SDS011;40360;52.992;6.796;2022-12-18T13:10:39;10.70;;;6.70;;
54125;SDS011;40360;52.992;6.796;2022-12-18T13:13:13;12.57;;;6.78;;
54125;SDS011;40360;52.992;6.796;2022-12-18T13:18:28;12.57;;;7.30;;
54125;SDS011;40360;52.992;6.796;2022-12-18T13:25:52;15.32;;;7.15;;
54125;SDS011;40360;52.992;6.796;2022-12-18T13:31:10;11.35;;;6.75;;
54125;SDS011;40360;52.992;6.796;2022-12-18T13:33:36;9.80;;;6.90;;
54125;SDS011;40360;52.992;6.796;2022-12-18T13:38:47;11.40;;;6.60;;
54125;SDS011;40360;52.992;6.796;2022-12-18T13:42:31;11.00;;;7.70;;
54125;SDS011;40360;52.992;6.796;2022-12-18T13:45:41;10.40;;;6.80;;
54125;SDS011;40360;52.992;6.796;2022-12-18T13:48:16;13.70;;;7.72;;
54125;SDS011;40360;52.992;6.796;2022-12-18T13:50:48;13.93;;;7.80;;
54125;SDS011;40360;52.992;6.796;2022-12-18T13:53:21;12.30;;;8.20;;
54125;SDS011;40360;52.992;6.796;2022-12-18T13:56:07;12.68;;;7.20;;
54125;SDS011;40360;52.992;6.796;2022-12-18T13:58:33;12.13;;;7.00;;
54125;SDS011;40360;52.992;6.796;2022-12-18T14:00:59;17.45;;;8.90;;
54125;SDS011;40360;52.992;6.796;2022-12-18T14:03:27;12.43;;;7.18;;
54125;SDS011;40360;52.992;6.796;2022-12-18T14:05:54;11.23;;;6.63;;
54125;SDS011;40360;52.992;6.796;2022-12-18T14:08:27;17.35;;;8.38;;
54125;SDS011;40360;52.992;6.796;2022-12-18T14:10:58;10.38;;;7.28;;
54125;SDS011;40360;52.992;6.796;2022-12-18T14:13:26;12.50;;;7.13;;
54125;SDS011;40360;52.992;6.796;2022-12-18T14:15:55;10.82;;;6.57;;
54125;SDS011;40360;52.992;6.796;2022-12-18T14:20:54;11.52;;;7.45;;
54125;SDS011;40360;52.992;6.796;2022-12-18T14:23:35;13.75;;;7.22;;
54125;SDS011;40360;52.992;6.796;2022-12-18T14:26:39;10.27;;;6.72;;
54125;SDS011;40360;52.992;6.796;2022-12-18T14:28:59;11.07;;;7.50;;
54125;SDS011;40360;52.992;6.796;2022-12-18T14:31:27;10.52;;;7.22;;
54125;SDS011;40360;52.992;6.796;2022-12-18T14:33:58;13.25;;;7.93;;
54125;SDS011;40360;52.992;6.796;2022-12-18T14:36:25;14.68;;;8.20;;
54125;SDS011;40360;52.992;6.796;2022-12-18T14:38:58;19.15;;;9.48;;
54125;SDS011;40360;52.992;6.796;2022-12-18T14:41:24;19.33;;;9.15;;
54125;SDS011;40360;52.992;6.796;2022-12-18T14:43:51;15.73;;;9.07;;
54125;SDS011;40360;52.992;6.796;2022-12-18T14:46:35;20.52;;;9.98;;
54125;SDS011;40360;52.992;6.796;2022-12-18T14:49:04;12.52;;;8.23;;
54125;SDS011;40360;52.992;6.796;2022-12-18T14:51:51;14.10;;;8.25;;
54125;SDS011;40360;52.992;6.796;2022-12-18T14:54:18;12.50;;;8.82;;
54125;SDS011;40360;52.992;6.796;2022-12-18T14:56:46;13.73;;;8.70;;
54125;SDS011;40360;52.992;6.796;2022-12-18T15:01:45;12.52;;;8.45;;
54125;SDS011;40360;52.992;6.796;2022-12-18T15:04:35;14.27;;;9.25;;
54125;SDS011;40360;52.992;6.796;2022-12-18T15:09:29;14.75;;;8.98;;
54125;SDS011;40360;52.992;6.796;2022-12-18T15:11:56;13.18;;;8.50;;
54125;SDS011;40360;52.992;6.796;2022-12-18T15:16:56;16.02;;;10.55;;
54125;SDS011;40360;52.992;6.796;2022-12-18T15:19:35;15.60;;;9.02;;
54125;SDS011;40360;52.992;6.796;2022-12-18T15:22:04;17.63;;;9.95;;
54125;SDS011;40360;52.992;6.796;2022-12-18T15:24:45;13.82;;;8.68;;
54125;SDS011;40360;52.992;6.796;2022-12-18T15:27:23;14.80;;;9.30;;
54125;SDS011;40360;52.992;6.796;2022-12-18T15:32:31;13.93;;;8.95;;
54125;SDS011;40360;52.992;6.796;2022-12-18T15:37:40;15.52;;;9.38;;
54125;SDS011;40360;52.992;6.796;2022-12-18T15:40:06;13.55;;;8.90;;
54125;SDS011;40360;52.992;6.796;2022-12-18T15:42:42;15.98;;;9.27;;
54125;SDS011;40360;52.992;6.796;2022-12-18T15:45:27;13.85;;;9.40;;
54125;SDS011;40360;52.992;6.796;2022-12-18T15:47:53;15.23;;;9.38;;
54125;SDS011;40360;52.992;6.796;2022-12-18T15:50:19;13.55;;;8.68;;
54125;SDS011;40360;52.992;6.796;2022-12-18T15:52:45;14.43;;;9.23;;
54125;SDS011;40360;52.992;6.796;2022-12-18T15:55:18;14.50;;;9.43;;
54125;SDS011;40360;52.992;6.796;2022-12-18T15:58:07;14.18;;;9.10;;
54125;SDS011;40360;52.992;6.796;2022-12-18T16:00:35;15.18;;;9.43;;
54125;SDS011;40360;52.992;6.796;2022-12-18T16:03:03;17.83;;;10.13;;
54125;SDS011;40360;52.992;6.796;2022-12-18T16:05:31;15.85;;;8.95;;
54125;SDS011;40360;52.992;6.796;2022-12-18T16:07:57;16.45;;;9.40;;
54125;SDS011;40360;52.992;6.796;2022-12-18T16:10:24;16.45;;;10.55;;
54125;SDS011;40360;52.992;6.796;2022-12-18T16:12:51;17.77;;;9.73;;
54125;SDS011;40360;52.992;6.796;2022-12-18T16:15:17;14.40;;;9.35;;
54125;SDS011;40360;52.992;6.796;2022-12-18T16:17:42;16.85;;;10.15;;
54125;SDS011;40360;52.992;6.796;2022-12-18T16:20:21;18.00;;;9.32;;
54125;SDS011;40360;52.992;6.796;2022-12-18T16:22:47;18.27;;;9.40;;
54125;SDS011;40360;52.992;6.796;2022-12-18T16:25:24;17.33;;;9.80;;
54125;SDS011;40360;52.992;6.796;2022-12-18T16:27:52;16.55;;;9.63;;
54125;SDS011;40360;52.992;6.796;2022-12-18T16:30:22;14.93;;;8.75;;
54125;SDS011;40360;52.992;6.796;2022-12-18T16:32:54;19.70;;;9.82;;
54125;SDS011;40360;52.992;6.796;2022-12-18T16:35:20;13.65;;;8.98;;
54125;SDS011;40360;52.992;6.796;2022-12-18T16:37:47;22.55;;;9.25;;
54125;SDS011;40360;52.992;6.796;2022-12-18T16:40:14;14.00;;;9.30;;
54125;SDS011;40360;52.992;6.796;2022-12-18T16:42:41;15.52;;;9.38;;
54125;SDS011;40360;52.992;6.796;2022-12-18T16:45:08;15.00;;;9.27;;